Time;durP1;ratioP1;P1;durP2;ratioP2;P2;SDS_P1;SDS_P2;PMS_P1;PMS_P2;Temp;Humidity;BMP_temperature;BMP_pressure;BME280_temperature;BME280_humidity;BME280_pressure;Samples;Min_cycle;Max_cycle;Signal;HPM_P1;HPM_P2
2022/08/03 00:01:10;;;;;;;;;;;;;;;17.05;70.70;97054.13;6223298;28;19932;-66
2022/08/03 00:04:16;;;;;;;;;;;;;;;16.93;70.97;97061.38;6223339;28;19925;-65
2022/08/03 00:07:19;;;;;;;;;;;;;;;16.93;71.02;97056.06;6223366;28;20415;-66
2022/08/03 00:10:20;;;;;;;;;;;;;;;16.81;70.85;97057.97;6223220;28;19925;-66
2022/08/03 00:13:21;;;;;;;;;;;;;;;16.74;71.23;97055.94;6222798;28;19969;-65
2022/08/03 00:16:25;;;;;;;;;;;;;;;16.67;71.34;97062.75;6222042;28;20130;-65
2022/08/03 00:19:28;;;;;;;;;;;;;;;16.64;71.27;97066.50;6222775;28;19926;-65
2022/08/03 00:22:33;;;;;;;;;;;;;;;16.61;71.25;97067.59;6222972;28;19979;-66
2022/08/03 00:25:37;;;;;;;;;;;;;;;16.62;71.21;97068.47;6223169;28;19928;-65
2022/08/03 00:28:40;;;;;;;;;;;;;;;16.61;71.21;97070.28;6222611;28;20350;-66
2022/08/03 00:31:41;;;;;;;;;;;;;;;16.56;71.47;97075.16;6222395;28;19928;-66
2022/08/03 00:34:44;;;;;;;;;;;;;;;16.56;71.54;97080.47;6222690;28;19938;-66
2022/08/03 00:37:47;;;;;;;;;;;;;;;16.54;71.41;97084.22;6222559;28;19925;-66
2022/08/03 00:40:50;;;;;;;;;;;;;;;16.53;71.42;97085.19;6222575;28;19926;-65
2022/08/03 00:43:52;;;;;;;;;;;;;;;16.51;71.46;97085.34;6222341;28;19930;-66
2022/08/03 00:46:53;;;;;;;;;;;;;;;16.53;71.38;97088.72;6221726;28;20280;-66
2022/08/03 00:49:56;;;;;;;;;;;;;;;16.54;71.34;97097.50;6222291;28;19925;-65
2022/08/03 00:52:58;;;;;;;;;;;;;;;16.56;71.31;97091.09;6221113;28;19928;-66
2022/08/03 00:56:01;;;;;;;;;;;;;;;16.63;71.00;97095.88;6222060;28;19926;-66
2022/08/03 00:59:06;;;;;;;;;;;;;;;16.65;71.01;97099.25;6221647;28;19925;-65
2022/08/03 01:02:07;;;;;;;;;;;;;;;16.66;71.25;97100.94;6222370;28;19937;-66
2022/08/03 01:05:09;;;;;;;;;;;;;;;16.71;71.00;97109.34;6221976;28;20411;-66
2022/08/03 01:08:32;;;;;;;;;;;;;;;16.76;70.67;97112.47;6222033;28;20384;-66
2022/08/03 01:12:04;;;;;;;;;;;;;;;16.78;70.80;97102.56;6221864;28;19925;-65
2022/08/03 01:15:11;;;;;;;;;;;;;;;16.85;70.70;97117.00;6205072;28;19932;-66
2022/08/03 01:18:15;;;;;;;;;;;;;;;16.92;70.16;97112.81;6221945;28;19926;-66
2022/08/03 01:21:31;;;;;;;;;;;;;;;16.97;70.06;97121.25;6221872;28;20399;-66
2022/08/03 01:24:44;;;;;;;;;;;;;;;17.00;69.69;97115.66;6221829;28;19930;-65
2022/08/03 01:28:05;;;;;;;;;;;;;;;17.06;69.74;97120.44;6221671;28;19926;-64
2022/08/03 01:31:09;;;;;;;;;;;;;;;17.15;69.34;97128.59;6221560;28;19937;-66
2022/08/03 01:34:14;;;;;;;;;;;;;;;17.23;69.33;97131.44;6221273;28;19925;-66
2022/08/03 01:37:26;;;;;;;;;;;;;;;17.33;68.84;97124.34;6221598;28;20020;-65
2022/08/03 01:40:33;;;;;;;;;;;;;;;17.36;68.48;97126.72;6221645;28;20020;-66
2022/08/03 01:43:35;;;;;;;;;;;;;;;17.35;68.42;97130.34;6221424;28;20295;-66
2022/08/03 01:46:38;;;;;;;;;;;;;;;17.37;68.04;97128.38;6221456;28;20322;-65
2022/08/03 01:49:42;;;;;;;;;;;;;;;17.35;68.17;97135.66;6221547;28;20411;-66
2022/08/03 01:52:46;;;;;;;;;;;;;;;17.37;68.17;97128.38;6221088;28;20418;-65
2022/08/03 01:55:51;;;;;;;;;;;;;;;17.46;67.87;97132.88;6221349;28;20454;-65
2022/08/03 01:58:55;;;;;;;;;;;;;;;17.56;67.60;97137.41;6221207;28;19925;-65
2022/08/03 02:01:59;;;;;;;;;;;;;;;17.64;67.46;97135.75;6220758;28;19926;-66
2022/08/03 02:05:00;;;;;;;;;;;;;;;17.76;66.78;97139.13;6224111;28;20421;-65
2022/08/03 02:08:05;;;;;;;;;;;;;;;17.91;66.34;97137.78;6225987;28;19925;-65
2022/08/03 02:11:08;;;;;;;;;;;;;;;18.12;65.82;97145.66;6225805;28;20447;-65
2022/08/03 02:14:10;;;;;;;;;;;;;;;18.36;65.18;97153.19;6224890;28;19926;-66
2022/08/03 02:17:11;;;;;;;;;;;;;;;18.60;64.74;97154.59;6225412;28;19944;-65
2022/08/03 02:20:15;;;;;;;;;;;;;;;18.84;63.73;97156.81;6225639;28;20028;-66
2022/08/03 02:23:19;;;;;;;;;;;;;;;19.03;63.33;97167.44;6225796;28;19925;-66
2022/08/03 02:26:23;;;;;;;;;;;;;;;19.18;62.72;97167.78;6225186;28;19926;-65
2022/08/03 02:29:25;;;;;;;;;;;;;;;19.22;62.40;97177.19;6225578;28;19932;-66
2022/08/03 02:32:31;;;;;;;;;;;;;;;19.27;62.52;97180.25;6225371;28;19926;-65
2022/08/03 02:35:33;;;;;;;;;;;;;;;19.37;62.10;97171.38;6224627;28;19926;-66
2022/08/03 02:38:36;;;;;;;;;;;;;;;19.35;62.25;97178.69;6225369;28;20024;-66
2022/08/03 02:41:54;;;;;;;;;;;;;;;19.19;62.00;97174.81;6225236;28;20210;-65
2022/08/03 02:44:56;;;;;;;;;;;;;;;19.04;62.44;97173.59;6224950;28;20339;-65
2022/08/03 02:48:04;;;;;;;;;;;;;;;18.96;62.75;97173.47;6224883;28;20315;-65
2022/08/03 02:51:06;;;;;;;;;;;;;;;18.81;62.92;97168.59;6224760;28;19925;-66
2022/08/03 02:54:10;;;;;;;;;;;;;;;18.68;63.17;97176.03;6224542;28;19925;-66
2022/08/03 02:57:18;;;;;;;;;;;;;;;18.58;63.35;97177.88;6224808;28;19929;-66
2022/08/03 03:00:19;;;;;;;;;;;;;;;18.54;63.50;97181.78;6224698;28;20490;-66
2022/08/03 03:03:22;;;;;;;;;;;;;;;18.48;63.42;97179.69;6224708;28;19925;-66
2022/08/03 03:06:26;;;;;;;;;;;;;;;18.46;63.54;97176.34;6224545;28;19930;-66
2022/08/03 03:09:31;;;;;;;;;;;;;;;18.45;63.39;97177.31;6224551;28;19926;-66
2022/08/03 03:12:32;;;;;;;;;;;;;;;18.45;63.43;97188.81;6224556;28;20012;-65
2022/08/03 03:15:35;;;;;;;;;;;;;;;18.48;63.28;97188.53;6223156;28;20359;-65
2022/08/03 03:18:37;;;;;;;;;;;;;;;18.51;62.84;97192.72;6224594;28;19925;-66
2022/08/03 03:21:42;;;;;;;;;;;;;;;18.55;62.53;97188.81;6224096;28;19929;-65
2022/08/03 03:24:46;;;;;;;;;;;;;;;18.57;62.64;97193.03;6224082;28;19926;-66
2022/08/03 03:27:48;;;;;;;;;;;;;;;18.64;62.46;97193.28;6224224;28;19988;-66
2022/08/03 03:30:57;;;;;;;;;;;;;;;18.72;62.30;97179.25;6223793;28;19926;-67
2022/08/03 03:34:00;;;;;;;;;;;;;;;18.76;61.84;97197.50;6223848;28;19926;-66
2022/08/03 03:37:01;;;;;;;;;;;;;;;18.82;61.62;97188.97;6223328;28;19925;-66
2022/08/03 03:40:07;;;;;;;;;;;;;;;18.89;60.98;97185.72;6223866;28;19925;-66
2022/08/03 03:43:09;;;;;;;;;;;;;;;18.91;61.00;97189.06;6223913;28;20348;-66
2022/08/03 03:46:14;;;;;;;;;;;;;;;18.96;61.22;97190.31;6223206;28;19932;-66
2022/08/03 03:49:16;;;;;;;;;;;;;;;19.06;60.26;97195.63;6223673;28;19926;-66
2022/08/03 03:52:25;;;;;;;;;;;;;;;19.12;60.18;97192.38;6221897;28;19925;-67
2022/08/03 03:55:37;;;;;;;;;;;;;;;19.21;59.86;97186.19;6223425;28;20016;-66
2022/08/03 03:58:41;;;;;;;;;;;;;;;19.29;59.54;97188.97;6223041;28;20068;-66
2022/08/03 04:01:47;;;;;;;;;;;;;;;19.35;59.18;97194.69;6223351;28;19932;-66
2022/08/03 04:11:33;;;;;;;;;;;;;;;19.53;59.06;97190.25;6222521;28;19925;-66
2022/08/03 04:14:37;;;;;;;;;;;;;;;19.58;58.69;97196.00;6222913;28;20350;-65
2022/08/03 04:17:39;;;;;;;;;;;;;;;19.63;58.71;97196.41;6222638;28;19965;-66
2022/08/03 04:20:44;;;;;;;;;;;;;;;19.68;58.72;97199.50;6222781;28;19926;-66
2022/08/03 04:23:49;;;;;;;;;;;;;;;19.83;57.91;97201.66;6222709;28;19925;-66
2022/08/03 04:26:54;;;;;;;;;;;;;;;19.89;57.29;97201.06;6222075;28;19926;-66
2022/08/03 04:30:01;;;;;;;;;;;;;;;19.99;56.75;97191.19;6222651;28;19926;-66
2022/08/03 04:33:07;;;;;;;;;;;;;;;20.08;56.03;97194.78;6222236;28;19929;-66
2022/08/03 04:36:11;;;;;;;;;;;;;;;20.17;55.61;97199.19;6222379;28;19925;-66
2022/08/03 04:39:24;;;;;;;;;;;;;;;20.27;54.70;97201.78;6222522;28;19925;-66
2022/08/03 04:42:28;;;;;;;;;;;;;;;20.40;53.73;97199.59;6222417;28;19929;-66
2022/08/03 04:45:32;;;;;;;;;;;;;;;20.59;52.81;97202.13;6222365;28;19926;-66
2022/08/03 04:48:36;;;;;;;;;;;;;;;22.53;49.93;97208.78;6222342;28;19926;-66
2022/08/03 04:51:39;;;;;;;;;;;;;;;27.06;42.69;97207.63;6222047;28;20410;-65
2022/08/03 04:54:44;;;;;;;;;;;;;;;31.81;36.37;97219.50;6222157;28;19925;-65
2022/08/03 04:57:48;;;;;;;;;;;;;;;35.83;32.14;97228.84;6221884;28;19925;-65
2022/08/03 05:00:50;;;;;;;;;;;;;;;39.03;29.22;97235.53;6221415;28;20327;-65
2022/08/03 05:03:59;;;;;;;;;;;;;;;41.73;25.44;97241.91;6222037;28;19925;-66
2022/08/03 05:07:01;;;;;;;;;;;;;;;43.74;23.66;97234.47;6221844;28;19932;-66
2022/08/03 05:10:03;;;;;;;;;;;;;;;45.34;20.93;97245.53;6221442;28;20119;-66
2022/08/03 05:13:12;;;;;;;;;;;;;;;46.54;20.63;97248.44;6220926;28;19926;-66
2022/08/03 05:16:16;;;;;;;;;;;;;;;47.94;18.73;97238.94;6222067;28;19925;-65
2022/08/03 05:19:19;;;;;;;;;;;;;;;49.03;17.74;97244.91;6222001;28;19926;-65
2022/08/03 05:22:26;;;;;;;;;;;;;;;49.92;16.88;97252.94;6221394;28;20011;-65
2022/08/03 05:25:31;;;;;;;;;;;;;;;50.98;16.32;97257.63;6221720;28;20396;-66
2022/08/03 05:28:34;;;;;;;;;;;;;;;51.85;14.82;97248.50;6221560;28;19931;-65
2022/08/03 05:31:37;;;;;;;;;;;;;;;52.05;13.53;97246.63;6222112;28;19926;-65
2022/08/03 05:34:42;;;;;;;;;;;;;;;51.84;14.11;97234.84;6221539;28;19925;-66
2022/08/03 05:37:46;;;;;;;;;;;;;;;52.52;13.15;97242.97;6221445;28;19925;-66
2022/08/03 05:40:47;;;;;;;;;;;;;;;52.90;11.46;97241.44;6220562;28;19925;-66
2022/08/03 05:43:54;;;;;;;;;;;;;;;53.07;10.24;97251.44;6221378;28;20311;-66
2022/08/03 05:46:59;;;;;;;;;;;;;;;53.33;10.54;97245.16;6221367;28;19925;-66
2022/08/03 05:50:01;;;;;;;;;;;;;;;53.30;10.43;97243.06;6221511;28;20303;-67
2022/08/03 05:53:06;;;;;;;;;;;;;;;53.01;10.23;97241.69;6221135;28;19931;-66
2022/08/03 05:56:12;;;;;;;;;;;;;;;53.30;10.24;97247.91;6221072;28;19932;-67
2022/08/03 05:59:16;;;;;;;;;;;;;;;53.98;9.24;97244.38;6221466;28;19926;-66
2022/08/03 06:02:17;;;;;;;;;;;;;;;54.65;9.06;97243.91;6221507;28;19933;-66
2022/08/03 06:05:20;;;;;;;;;;;;;;;54.58;8.62;97235.31;6221190;28;19933;-66
2022/08/03 06:08:22;;;;;;;;;;;;;;;54.47;9.01;97242.78;6219738;28;20384;-65
2022/08/03 06:11:24;;;;;;;;;;;;;;;54.88;8.33;97240.19;6220286;28;19925;-65
2022/08/03 06:14:27;;;;;;;;;;;;;;;55.14;7.97;97242.16;6221323;28;19926;-65
2022/08/03 06:17:31;;;;;;;;;;;;;;;54.95;7.87;97234.63;6220638;28;19925;-64
2022/08/03 06:20:33;;;;;;;;;;;;;;;51.58;8.88;97218.47;6221152;28;19929;-65
2022/08/03 06:23:35;;;;;;;;;;;;;;;50.13;9.77;97211.69;6220894;28;20457;-66
2022/08/03 06:26:37;;;;;;;;;;;;;;;48.85;10.89;97205.91;6220752;28;19973;-64
2022/08/03 06:29:41;;;;;;;;;;;;;;;51.36;9.44;97220.72;6221043;28;19926;-65
2022/08/03 06:32:47;;;;;;;;;;;;;;;52.91;7.97;97214.13;6220632;28;19925;-66
2022/08/03 06:35:49;;;;;;;;;;;;;;;54.15;7.46;97220.56;6220637;28;20381;-66
2022/08/03 06:38:51;;;;;;;;;;;;;;;54.61;7.28;97220.47;6220969;28;20402;-65
2022/08/03 06:41:57;;;;;;;;;;;;;;;52.85;7.82;97213.59;6220987;28;19925;-66
2022/08/03 06:45:02;;;;;;;;;;;;;;;52.83;8.45;97218.81;6220853;28;19925;-66
2022/08/03 06:48:10;;;;;;;;;;;;;;;53.36;7.81;97221.94;6220872;28;19926;-66
2022/08/03 06:51:13;;;;;;;;;;;;;;;50.25;8.99;97211.72;6221634;28;19929;-69
2022/08/03 06:54:16;;;;;;;;;;;;;;;50.61;8.99;97215.63;6224735;28;19925;-65
2022/08/03 06:57:18;;;;;;;;;;;;;;;52.61;7.98;97216.69;6224557;28;19940;-66
2022/08/03 07:00:22;;;;;;;;;;;;;;;53.60;7.16;97228.41;6224277;28;19925;-66
2022/08/03 07:03:26;;;;;;;;;;;;;;;54.74;6.69;97220.28;6224485;28;19922;-65
2022/08/03 07:06:30;;;;;;;;;;;;;;;55.81;6.66;97224.38;6224706;28;19925;-65
2022/08/03 07:09:33;;;;;;;;;;;;;;;56.66;5.84;97229.94;6224717;28;19929;-65
2022/08/03 07:12:37;;;;;;;;;;;;;;;57.40;6.04;97227.06;6224378;28;19926;-66
2022/08/03 07:15:40;;;;;;;;;;;;;;;57.45;6.10;97232.31;6225102;28;19926;-66
2022/08/03 07:18:43;;;;;;;;;;;;;;;57.92;6.41;97233.22;6228139;28;20032;-66
2022/08/03 07:21:46;;;;;;;;;;;;;;;58.99;5.83;97238.00;6243510;28;19928;-65
2022/08/03 07:24:52;;;;;;;;;;;;;;;59.25;5.61;97242.31;6252909;28;19920;-65
2022/08/03 07:27:56;;;;;;;;;;;;;;;56.53;6.33;97227.81;6239484;28;19931;-65
2022/08/03 07:30:59;;;;;;;;;;;;;;;54.78;7.75;97218.31;6224011;28;19925;-65
2022/08/03 07:34:02;;;;;;;;;;;;;;;56.23;5.95;97217.53;6222745;28;19925;-66
2022/08/03 07:37:06;;;;;;;;;;;;;;;56.92;6.23;97220.38;6222877;28;19925;-65
2022/08/03 07:40:10;;;;;;;;;;;;;;;58.07;5.87;97228.41;6224097;28;20295;-64
2022/08/03 07:43:13;;;;;;;;;;;;;;;55.34;6.71;97217.44;6223798;28;19977;-65
2022/08/03 07:46:16;;;;;;;;;;;;;;;55.25;6.92;97216.91;6223504;28;19925;-65
2022/08/03 07:49:19;;;;;;;;;;;;;;;56.56;6.36;97224.22;6223679;28;20400;-65
2022/08/03 07:56:03;;;;;;;;;;;;;;;54.24;6.60;97201.38;6223586;28;19930;-65
2022/08/03 07:59:24;;;;;;;;;;;;;;;53.09;7.25;97208.94;6222846;28;19925;-66
2022/08/03 08:02:28;;;;;;;;;;;;;;;54.67;6.71;97204.91;6222706;28;19929;-65
2022/08/03 08:05:31;;;;;;;;;;;;;;;52.19;7.81;97189.22;6222980;28;19932;-65
2022/08/03 08:08:35;;;;;;;;;;;;;;;48.35;9.71;97176.03;6223118;28;20021;-66
2022/08/03 08:11:37;;;;;;;;;;;;;;;49.26;9.32;97172.69;6221570;28;19925;-67
2022/08/03 08:14:41;;;;;;;;;;;;;;;49.80;8.76;97179.03;6223078;28;19925;-65
2022/08/03 08:17:48;;;;;;;;;;;;;;;47.03;9.99;97165.63;6222986;28;19925;-66
2022/08/03 08:20:51;;;;;;;;;;;;;;;46.73;10.30;97167.44;6221804;28;19926;-67
2022/08/03 08:23:55;;;;;;;;;;;;;;;47.79;9.56;97169.75;6221681;28;19925;-67
2022/08/03 08:27:00;;;;;;;;;;;;;;;49.41;8.89;97175.66;6223084;28;19925;-67
2022/08/03 08:30:03;;;;;;;;;;;;;;;52.37;7.24;97184.84;6222675;28;20299;-66
2022/08/03 08:33:06;;;;;;;;;;;;;;;53.78;6.72;97192.97;6221324;28;20377;-66
2022/08/03 08:36:09;;;;;;;;;;;;;;;54.68;6.41;97188.78;6221258;28;19933;-66
2022/08/03 08:39:12;;;;;;;;;;;;;;;55.35;5.94;97193.66;6222450;28;19937;-65
2022/08/03 08:42:15;;;;;;;;;;;;;;;55.95;5.73;97199.13;6222574;28;20383;-65
2022/08/03 08:45:18;;;;;;;;;;;;;;;56.91;5.37;97196.16;6221047;28;20386;-65
2022/08/03 08:48:23;;;;;;;;;;;;;;;57.18;4.76;97204.34;6222257;28;19932;-66
2022/08/03 08:51:29;;;;;;;;;;;;;;;56.51;5.53;97193.47;6221828;28;19925;-67
2022/08/03 08:54:33;;;;;;;;;;;;;;;56.77;5.29;97190.41;6222266;28;19930;-65
2022/08/03 08:57:38;;;;;;;;;;;;;;;54.97;5.81;97192.81;6221843;28;19932;-65
2022/08/03 09:00:44;;;;;;;;;;;;;;;50.52;7.96;97178.56;6221974;28;19925;-65
2022/08/03 09:03:47;;;;;;;;;;;;;;;47.30;9.54;97177.56;6221904;28;19925;-65
2022/08/03 09:06:51;;;;;;;;;;;;;;;48.63;8.50;97172.75;6221796;28;19925;-66
2022/08/03 09:09:54;;;;;;;;;;;;;;;50.84;7.56;97175.91;6221420;28;20028;-65
2022/08/03 09:12:58;;;;;;;;;;;;;;;53.02;6.31;97177.84;6221057;28;19925;-66
2022/08/03 09:16:12;;;;;;;;;;;;;;;54.28;5.75;97179.72;6221243;28;19926;-64
2022/08/03 09:19:15;;;;;;;;;;;;;;;54.85;5.37;97190.22;6221517;28;19936;-65
2022/08/03 09:22:19;;;;;;;;;;;;;;;54.49;6.01;97190.50;6221416;28;19925;-65
2022/08/03 09:25:27;;;;;;;;;;;;;;;53.87;6.37;97186.28;6221456;28;19952;-65
2022/08/03 09:28:34;;;;;;;;;;;;;;;53.92;6.08;97186.78;6221356;28;19925;-65
2022/08/03 09:31:41;;;;;;;;;;;;;;;54.28;5.94;97184.56;6221090;28;19926;-64
2022/08/03 09:34:46;;;;;;;;;;;;;;;54.48;6.50;97182.47;6221118;28;19926;-65
2022/08/03 09:38:08;;;;;;;;;;;;;;;52.74;7.20;97185.31;6221372;28;20016;-65
2022/08/03 09:41:17;;;;;;;;;;;;;;;47.88;9.14;97162.16;6221351;28;19929;-64
2022/08/03 09:44:32;;;;;;;;;;;;;;;46.96;9.71;97159.72;6221270;28;19922;-66
2022/08/03 09:47:35;;;;;;;;;;;;;;;49.10;8.71;97172.53;6220797;28;19932;-65
2022/08/03 09:50:53;;;;;;;;;;;;;;;50.95;7.66;97165.84;6220872;28;19926;-65
2022/08/03 09:53:58;;;;;;;;;;;;;;;51.60;7.04;97180.47;6220767;28;20083;-65
2022/08/03 09:57:02;;;;;;;;;;;;;;;51.50;7.41;97175.44;6220923;28;19937;-65
2022/08/03 10:00:10;;;;;;;;;;;;;;;50.94;7.46;97175.41;6220780;28;19922;-66
2022/08/03 10:03:14;;;;;;;;;;;;;;;49.40;8.45;97168.47;6221000;28;19925;-65
2022/08/03 10:06:21;;;;;;;;;;;;;;;49.04;8.56;97154.34;6220792;28;19925;-66
2022/08/03 10:09:28;;;;;;;;;;;;;;;47.62;9.49;97154.72;6221032;28;20307;-67
2022/08/03 10:12:34;;;;;;;;;;;;;;;47.46;9.40;97156.41;6220575;28;19929;-66
2022/08/03 10:15:38;;;;;;;;;;;;;;;48.59;8.78;97152.25;6219713;28;19932;-66
2022/08/03 10:18:42;;;;;;;;;;;;;;;49.33;8.33;97165.41;6220730;28;19929;-65
2022/08/03 10:21:48;;;;;;;;;;;;;;;48.53;8.43;97155.25;6220935;28;20406;-65
2022/08/03 10:24:55;;;;;;;;;;;;;;;46.49;9.70;97146.44;6221667;28;20307;-66
2022/08/03 10:28:03;;;;;;;;;;;;;;;46.08;10.03;97147.66;6225313;28;19921;-66
2022/08/03 10:31:07;;;;;;;;;;;;;;;46.55;9.77;97149.91;6223514;28;19948;-64
2022/08/03 10:34:28;;;;;;;;;;;;;;;46.55;9.79;97144.31;6225250;28;20320;-66
2022/08/03 10:37:34;;;;;;;;;;;;;;;47.17;9.46;97144.00;6225308;28;19925;-65
2022/08/03 10:40:39;;;;;;;;;;;;;;;47.48;9.20;97142.97;6225194;28;19926;-65
2022/08/03 10:43:44;;;;;;;;;;;;;;;48.00;9.22;97139.94;6225278;28;19932;-65
2022/08/03 10:46:49;;;;;;;;;;;;;;;48.05;8.83;97145.34;6224805;28;19926;-65
2022/08/03 10:49:53;;;;;;;;;;;;;;;47.10;9.65;97137.28;6224949;28;20403;-66
2022/08/03 10:53:05;;;;;;;;;;;;;;;47.19;9.65;97141.66;6224962;28;19933;-66
2022/08/03 10:59:47;;;;;;;;;;;;;;;47.35;9.65;97149.53;6224948;28;19940;-65
2022/08/03 11:03:02;;;;;;;;;;;;;;;47.30;9.59;97144.13;6224669;28;19926;-65
2022/08/03 11:06:17;;;;;;;;;;;;;;;47.09;9.66;97142.03;6224207;28;19925;-66
2022/08/03 11:09:21;;;;;;;;;;;;;;;46.87;9.59;97142.22;6224124;28;20315;-65
2022/08/03 11:12:28;;;;;;;;;;;;;;;46.05;10.17;97136.38;6224160;28;19931;-65
2022/08/03 11:15:33;;;;;;;;;;;;;;;45.33;10.54;97138.34;6224000;28;20302;-66
2022/08/03 11:18:54;;;;;;;;;;;;;;;44.84;10.80;97131.75;6224155;28;19925;-65
2022/08/03 11:21:56;;;;;;;;;;;;;;;44.53;11.12;97140.81;6223980;28;20419;-65
2022/08/03 11:25:00;;;;;;;;;;;;;;;44.35;11.35;97136.25;6224164;28;19933;-66
2022/08/03 11:28:22;;;;;;;;;;;;;;;44.20;11.25;97131.00;6224281;28;19929;-66
2022/08/03 11:31:26;;;;;;;;;;;;;;;44.22;11.25;97131.50;6223952;28;19925;-66
2022/08/03 11:34:30;;;;;;;;;;;;;;;43.79;11.64;97129.06;6224102;28;19932;-66
2022/08/03 11:37:34;;;;;;;;;;;;;;;42.99;12.14;97129.09;6222990;28;19925;-65
2022/08/03 11:40:35;;;;;;;;;;;;;;;42.39;12.28;97126.97;6223160;28;19925;-66
2022/08/03 11:43:43;;;;;;;;;;;;;;;41.94;12.85;97109.88;6223575;28;19921;-66
2022/08/03 11:46:46;;;;;;;;;;;;;;;41.37;13.04;97116.31;6223507;28;19926;-65
2022/08/03 11:49:48;;;;;;;;;;;;;;;40.77;13.43;97113.81;6223413;28;19955;-67
2022/08/03 11:52:53;;;;;;;;;;;;;;;40.43;13.88;97111.81;6223496;28;19926;-66
2022/08/03 11:55:58;;;;;;;;;;;;;;;39.45;14.37;97116.06;6223438;28;20427;-65
2022/08/03 11:59:01;;;;;;;;;;;;;;;38.04;15.37;97120.06;6223317;28;20023;-65
2022/08/03 12:02:07;;;;;;;;;;;;;;;37.37;16.18;97118.91;6223424;28;19925;-65
2022/08/03 12:05:13;;;;;;;;;;;;;;;37.22;16.39;97107.81;6223134;28;19925;-65
2022/08/03 12:08:16;;;;;;;;;;;;;;;37.15;16.01;97101.75;6223222;28;20015;-65
2022/08/03 12:11:17;;;;;;;;;;;;;;;37.41;16.35;97106.28;6222876;28;19933;-65
2022/08/03 12:14:23;;;;;;;;;;;;;;;37.63;15.86;97100.66;6223117;28;19953;-66
2022/08/03 12:17:31;;;;;;;;;;;;;;;38.10;15.45;97099.75;6223318;28;19999;-66
2022/08/03 12:20:32;;;;;;;;;;;;;;;38.35;15.44;97098.97;6222615;28;19936;-66
2022/08/03 12:23:37;;;;;;;;;;;;;;;38.27;15.48;97095.94;6222636;28;19933;-65
2022/08/03 12:26:45;;;;;;;;;;;;;;;37.85;16.01;97100.47;6222443;28;19925;-66
2022/08/03 12:29:51;;;;;;;;;;;;;;;37.53;16.17;97098.69;6222552;28;19925;-65
2022/08/03 12:32:58;;;;;;;;;;;;;;;37.24;16.34;97100.16;6222267;28;19944;-65
2022/08/03 12:36:02;;;;;;;;;;;;;;;37.10;16.48;97099.78;6222291;28;20036;-65
2022/08/03 12:39:12;;;;;;;;;;;;;;;36.94;16.68;97101.53;6222402;28;19925;-66
2022/08/03 12:42:13;;;;;;;;;;;;;;;36.60;16.37;97090.88;6222284;28;20075;-66
2022/08/03 12:45:20;;;;;;;;;;;;;;;36.31;16.78;97103.16;6221922;28;20395;-65
2022/08/03 12:48:21;;;;;;;;;;;;;;;36.03;17.15;97096.00;6221849;28;19937;-66
2022/08/03 12:51:26;;;;;;;;;;;;;;;35.95;16.89;97100.84;6221872;28;19925;-68
2022/08/03 12:54:31;;;;;;;;;;;;;;;35.71;16.82;97103.03;6222328;28;19925;-67
2022/08/03 12:57:39;;;;;;;;;;;;;;;35.31;17.20;97101.38;6222369;28;19921;-65
2022/08/03 13:00:53;;;;;;;;;;;;;;;34.95;17.52;97097.25;6221573;28;20415;-66
2022/08/03 13:03:57;;;;;;;;;;;;;;;34.15;18.17;97098.31;6221810;28;19926;-66
2022/08/03 13:07:02;;;;;;;;;;;;;;;33.54;18.64;97093.25;6220825;28;19925;-65
2022/08/03 13:10:03;;;;;;;;;;;;;;;32.94;19.36;97098.13;6221604;28;19944;-66
2022/08/03 13:13:05;;;;;;;;;;;;;;;32.29;19.87;97099.75;6220802;28;19925;-65
2022/08/03 13:16:08;;;;;;;;;;;;;;;31.96;19.96;97094.78;6221457;28;19925;-66
2022/08/03 13:19:10;;;;;;;;;;;;;;;31.71;20.60;97095.72;6221453;28;20307;-66
2022/08/03 13:22:11;;;;;;;;;;;;;;;31.40;20.80;97098.59;6221220;28;19925;-68
2022/08/03 13:25:16;;;;;;;;;;;;;;;31.28;21.02;97096.59;6221540;28;20488;-66
2022/08/03 13:28:21;;;;;;;;;;;;;;;31.09;21.22;97092.19;6221219;28;20447;-66
2022/08/03 13:31:25;;;;;;;;;;;;;;;30.79;21.21;97095.59;6221332;28;19926;-66
2022/08/03 13:34:28;;;;;;;;;;;;;;;30.65;21.60;97091.31;6221253;28;19926;-67
2022/08/03 13:37:32;;;;;;;;;;;;;;;30.51;21.38;97101.44;6220984;28;19925;-67
2022/08/03 13:40:36;;;;;;;;;;;;;;;30.38;22.13;97102.38;6220889;28;20391;-66
2022/08/03 13:43:37;;;;;;;;;;;;;;;30.31;22.14;97111.63;6220673;28;19933;-66
2022/08/03 13:46:41;;;;;;;;;;;;;;;30.50;22.19;97104.41;6221003;28;19944;-66
2022/08/03 13:49:45;;;;;;;;;;;;;;;30.72;21.70;97102.97;6220805;28;19925;-66
2022/08/03 13:52:51;;;;;;;;;;;;;;;30.52;22.19;97107.72;6220747;28;19922;-66
2022/08/03 13:55:55;;;;;;;;;;;;;;;30.16;22.33;97110.00;6221111;28;19925;-66
2022/08/03 13:59:01;;;;;;;;;;;;;;;29.74;22.60;97106.06;6220939;28;19930;-66
2022/08/03 14:02:02;;;;;;;;;;;;;;;29.27;23.03;97108.91;6225750;28;19932;-66
2022/08/03 14:05:04;;;;;;;;;;;;;;;29.13;23.26;97114.53;6226222;28;19925;-66
2022/08/03 14:08:06;;;;;;;;;;;;;;;29.13;23.58;97104.56;6225138;28;19925;-66
2022/08/03 14:11:12;;;;;;;;;;;;;;;29.13;24.06;97117.25;6225522;28;19925;-65
2022/08/03 14:14:13;;;;;;;;;;;;;;;28.97;24.22;97116.63;6225406;28;19926;-65
2022/08/03 14:17:14;;;;;;;;;;;;;;;28.65;24.47;97119.16;6225227;28;19925;-67
2022/08/03 14:20:18;;;;;;;;;;;;;;;28.11;24.75;97127.34;6225611;28;19948;-66
2022/08/03 14:23:22;;;;;;;;;;;;;;;27.69;25.33;97119.28;6225860;28;19952;-66
2022/08/03 14:26:26;;;;;;;;;;;;;;;27.27;25.84;97125.72;6225638;28;19953;-66
2022/08/03 14:29:27;;;;;;;;;;;;;;;26.88;26.14;97124.41;6225935;28;19932;-67
2022/08/03 14:32:30;;;;;;;;;;;;;;;26.65;26.15;97127.34;6225346;28;19925;-66
2022/08/03 14:35:34;;;;;;;;;;;;;;;26.48;26.55;97126.72;6224259;28;19925;-67
2022/08/03 14:38:38;;;;;;;;;;;;;;;26.22;26.73;97131.88;6224737;28;19925;-67
2022/08/03 14:41:39;;;;;;;;;;;;;;;26.02;27.26;97131.69;6225307;28;20413;-66
2022/08/03 14:44:43;;;;;;;;;;;;;;;25.88;27.90;97142.31;6225397;28;19926;-66
2022/08/03 14:47:44;;;;;;;;;;;;;;;25.81;27.83;97130.56;6225141;28;19921;-66
2022/08/03 14:50:45;;;;;;;;;;;;;;;25.80;28.38;97142.38;6224793;28;19932;-66
2022/08/03 14:53:49;;;;;;;;;;;;;;;25.71;27.97;97140.81;6224747;28;19928;-66
2022/08/03 14:56:55;;;;;;;;;;;;;;;25.71;28.17;97143.50;6224602;28;19933;-67
2022/08/03 14:59:59;;;;;;;;;;;;;;;25.65;28.57;97152.34;6224734;28;19947;-65
2022/08/03 15:03:03;;;;;;;;;;;;;;;25.44;28.98;97145.00;6224544;28;20024;-66
2022/08/03 15:06:10;;;;;;;;;;;;;;;25.31;28.95;97151.06;6224471;28;19925;-66
2022/08/03 15:09:16;;;;;;;;;;;;;;;25.19;29.38;97147.16;6224460;28;19937;-67
2022/08/03 15:12:19;;;;;;;;;;;;;;;25.05;29.97;97152.31;6223172;28;19925;-66
2022/08/03 15:15:23;;;;;;;;;;;;;;;24.93;29.99;97156.47;6224678;28;19947;-66
2022/08/03 15:18:28;;;;;;;;;;;;;;;24.75;30.39;97153.28;6224335;28;19976;-66
2022/08/03 15:21:29;;;;;;;;;;;;;;;24.64;30.34;97154.53;6223218;28;19925;-67
2022/08/03 15:24:32;;;;;;;;;;;;;;;24.64;29.92;97160.75;6223476;28;19932;-66
2022/08/03 15:27:36;;;;;;;;;;;;;;;24.75;30.08;97161.34;6224298;28;19925;-66
2022/08/03 15:30:37;;;;;;;;;;;;;;;24.61;30.43;97161.13;6223746;28;20409;-66
2022/08/03 15:33:42;;;;;;;;;;;;;;;24.42;30.52;97161.56;6223841;28;19925;-66
2022/08/03 15:36:46;;;;;;;;;;;;;;;24.23;30.62;97170.09;6223824;28;19925;-65
2022/08/03 15:39:48;;;;;;;;;;;;;;;24.09;30.86;97177.94;6224242;28;19925;-65
2022/08/03 15:42:49;;;;;;;;;;;;;;;24.00;31.34;97178.97;6223641;28;19925;-68
2022/08/03 15:45:55;;;;;;;;;;;;;;;23.87;31.31;97179.56;6223629;28;20753;-66
2022/08/03 15:48:59;;;;;;;;;;;;;;;23.71;31.49;97180.47;6223476;28;19925;-65
2022/08/03 15:52:01;;;;;;;;;;;;;;;23.54;31.94;97186.88;6223568;28;19929;-66
2022/08/03 15:55:04;;;;;;;;;;;;;;;23.43;31.92;97187.25;6223367;28;20260;-65
2022/08/03 15:58:05;;;;;;;;;;;;;;;23.28;31.86;97190.66;6222723;28;20059;-66
2022/08/03 16:01:06;;;;;;;;;;;;;;;23.23;32.35;97182.28;6222973;28;19925;-66
2022/08/03 16:04:08;;;;;;;;;;;;;;;23.17;32.01;97182.13;6222823;28;20087;-66
2022/08/03 16:07:14;;;;;;;;;;;;;;;23.03;32.51;97186.34;6223023;28;20304;-66
2022/08/03 16:10:19;;;;;;;;;;;;;;;22.94;32.85;97195.38;6223059;28;20300;-67
2022/08/03 16:13:23;;;;;;;;;;;;;;;22.90;33.03;97194.03;6222257;28;20450;-66
2022/08/03 16:16:24;;;;;;;;;;;;;;;22.78;33.16;97194.38;6222843;28;19926;-65
2022/08/03 16:19:30;;;;;;;;;;;;;;;22.70;33.43;97197.06;6222920;28;19926;-66